Retrouvez également nos données météorologiques sur:

UK Metoffice

Weather Underground

AWEKAS

Citizen Weather Observer Program (CWOP)



Rapports METAR à proximité

   
LFOJ - Montargis
Mise à jour: 13-11-2019 02:30
Nuageux  
Nuageux  
   Vent: SO 14.8 km/h
Vent: SO 14.8 km/h
Température: 3°C
éolien: -1°C
Point de rosée: 2°C
Humidité: 93%
Pression atmosphérique: 1004 hPa
Nuages: Nuageux
Visibilité: More than 10 km
Nébulosité: Nuageux 4300 ft,
Nuageux 7000 ft
LFOJ 130130Z AUTO 22008KT 9999 BKN043 BKN070 03/02 Q1004
LFOJ - Orléans
Mise à jour: 13-11-2019 02:30
Nuageux  
Nuageux  
   Vent: SO 14.8 km/h
Vent: SO 14.8 km/h
Température: 3°C
éolien: -1°C
Point de rosée: 2°C
Humidité: 93%
Pression atmosphérique: 1004 hPa
Nuages: Nuageux
Visibilité: More than 10 km
Nébulosité: Nuageux 4300 ft,
Nuageux 7000 ft
LFOJ 130130Z AUTO 22008KT 9999 BKN043 BKN070 03/02 Q1004
LFQB - Sens
Mise à jour: 13-11-2019 02:30
Nuageux  
Nuageux  
   Vent: SO 16.7 km/h
Vent: SO 16.7 km/h
Température: 4°C
éolien: 0°C
Point de rosée: 2°C
Humidité: 87%
Pression atmosphérique: 1003 hPa
Nuages: Nuageux
Visibilité: More than 10 km
Nébulosité: Partiellement nuageux 3300 ft,
Partiellement nuageux 4400 ft,
Nuageux 5800 ft
LFQB 130130Z AUTO 22009KT 9999 SCT033 SCT044 BKN058 04/02 Q1003
LFQB - Auxerre
Mise à jour: 13-11-2019 02:30
Nuageux  
Nuageux  
   Vent: SO 16.7 km/h
Vent: SO 16.7 km/h
Température: 4°C
éolien: 0°C
Point de rosée: 2°C
Humidité: 87%
Pression atmosphérique: 1003 hPa
Nuages: Nuageux
Visibilité: More than 10 km
Nébulosité: Partiellement nuageux 3300 ft,
Partiellement nuageux 4400 ft,
Nuageux 5800 ft
LFQB 130130Z AUTO 22009KT 9999 SCT033 SCT044 BKN058 04/02 Q1003
LFPO - Paris
Mise à jour: 13-11-2019 02:30
Nuageux  
Nuageux  
   Vent: OSO 18.5 km/h
Vent: OSO 18.5 km/h
Température: 4°C
éolien: 0°C
Point de rosée: 3°C
Humidité: 93%
Pression atmosphérique: 1003 hPa
Nuages: Nuageux
Visibilité: More than 10 km
Nébulosité: Peu de nuages 3100 ft,
Nuageux 8300 ft
LFPO 130130Z 25010KT 9999 FEW031 BKN083 04/03 Q1003 NOSIG
LFLX - Bourges
Mise à jour: 13-11-2019 02:30
Ciel dégagé  
Ciel dégagé  
   Vent: SSO 9.3 km/h
Vent: SSO 9.3 km/h
Température: 0°C
éolien: -3°C
Point de rosée: 0°C
Humidité: 100%
Pression atmosphérique: 1006 hPa
Visibilité: More than 10 km
Nébulosité: Ciel dégagé
LFLX 130130Z AUTO 21005KT CAVOK 00/00 Q1006 TEMPO 0500 FG VV///

Original script by  Saratoga-weather.org Adapted for the template by  Weerstation Leuven